Time;durP1;ratioP1;P1;durP2;ratioP2;P2;SDS_P1;SDS_P2;PMS_P1;PMS_P2;Temp;Humidity;BMP_temperature;BMP_pressure;BME280_temperature;BME280_humidity;BME280_pressure;Samples;Min_cycle;Max_cycle;Signal;HPM_P1;HPM_P2
2022/06/15 00:01:14;;;;;;;9.88;4.90;;;;;;;13.40;71.28;101856.78;5112411;28;20387;-71
2022/06/15 00:03:40;;;;;;;7.57;4.20;;;;;;;13.37;72.17;101850.75;5113255;28;20027;-71
2022/06/15 00:06:09;;;;;;;6.38;4.20;;;;;;;13.33;72.34;101858.66;5113044;28;20792;-71
2022/06/15 00:08:35;;;;;;;8.52;3.90;;;;;;;13.30;72.01;101856.09;5112501;28;20039;-71
2022/06/15 00:11:21;;;;;;;8.20;4.47;;;;;;;13.25;71.12;101847.50;5112894;28;20024;-71
2022/06/15 00:13:47;;;;;;;6.85;4.70;;;;;;;13.20;73.06;101841.44;5112783;28;20028;-72
2022/06/15 00:16:13;;;;;;;11.02;4.68;;;;;;;13.21;72.32;101853.66;5112078;28;20102;-71
2022/06/15 00:18:39;;;;;;;7.32;4.55;;;;;;;13.18;73.11;101848.47;5112777;28;20502;-71
2022/06/15 00:21:06;;;;;;;8.88;4.60;;;;;;;13.11;72.96;101849.44;5112845;28;20034;-71
2022/06/15 00:23:33;;;;;;;6.25;4.00;;;;;;;13.07;73.12;101848.63;5112145;28;20027;-72
2022/06/15 00:25:59;;;;;;;6.32;4.45;;;;;;;13.09;73.70;101846.00;5112851;28;20050;-72
2022/06/15 00:28:26;;;;;;;8.02;4.13;;;;;;;13.08;73.30;101844.28;5113101;28;20055;-72
2022/06/15 00:30:52;;;;;;;8.63;4.30;;;;;;;13.04;74.01;101850.44;5112030;28;20031;-72
2022/06/15 00:33:19;;;;;;;7.30;3.97;;;;;;;13.06;74.33;101840.81;5112819;28;20027;-72
2022/06/15 00:36:13;;;;;;;8.48;4.22;;;;;;;13.08;74.59;101846.91;5111884;28;20391;-72
2022/06/15 00:38:43;;;;;;;6.53;3.93;;;;;;;13.09;73.78;101840.78;5112396;28;20477;-72
2022/06/15 00:41:13;;;;;;;7.40;4.43;;;;;;;13.03;74.29;101840.88;5112844;28;20035;-71
2022/06/15 00:43:42;;;;;;;9.50;3.80;;;;;;;13.04;73.92;101837.38;5111860;28;20118;-72
2022/06/15 00:46:33;;;;;;;5.80;3.88;;;;;;;13.01;73.71;101837.41;5112800;28;20463;-72
2022/06/15 00:49:06;;;;;;;8.48;4.22;;;;;;;12.96;74.76;101831.41;5112402;28;20023;-72
2022/06/15 00:51:31;;;;;;;10.00;4.47;;;;;;;12.93;75.13;101831.47;5112001;28;20023;-72
2022/06/15 00:53:58;;;;;;;9.65;4.80;;;;;;;12.94;75.34;101839.28;5112311;28;20034;-72
2022/06/15 00:56:27;;;;;;;7.65;4.28;;;;;;;12.91;75.79;101830.63;5112597;28;20050;-73
2022/06/15 00:58:57;;;;;;;5.85;4.43;;;;;;;12.86;75.59;101833.31;5111621;28;20035;-71
2022/06/15 01:01:23;;;;;;;7.15;4.43;;;;;;;12.93;75.71;101837.56;5116056;28;20016;-72
2022/06/15 01:03:51;;;;;;;8.65;4.57;;;;;;;12.93;75.87;101834.09;5115088;28;20085;-72
2022/06/15 01:06:32;;;;;;;7.45;5.10;;;;;;;12.94;74.54;101825.34;5116033;28;20106;-72
2022/06/15 01:09:04;;;;;;;8.43;5.25;;;;;;;12.89;75.78;101826.28;5115707;28;20501;-71
2022/06/15 01:11:57;;;;;;;9.45;5.53;;;;;;;12.91;74.76;101828.00;5115407;28;20034;-71
2022/06/15 01:14:44;;;;;;;6.35;5.68;;;;;;;12.88;74.68;101815.81;5116013;28;20050;-71
2022/06/15 01:17:33;;;;;;;7.00;5.35;;;;;;;12.85;76.00;101815.88;5116129;28;20051;-72
2022/06/15 01:20:04;;;;;;;7.47;5.00;;;;;;;12.79;76.60;101822.09;5115017;28;20028;-71
2022/06/15 01:22:37;;;;;;;13.63;5.70;;;;;;;12.76;75.71;101816.91;5115896;28;20107;-72
2022/06/15 01:25:28;;;;;;;9.68;5.20;;;;;;;12.75;75.24;101820.44;5114773;28;20042;-71
2022/06/15 01:28:08;;;;;;;8.70;5.53;;;;;;;12.75;76.38;101820.44;5115354;28;20364;-71
2022/06/15 01:30:45;;;;;;;9.40;5.80;;;;;;;12.76;76.35;101826.53;5116019;28;20019;-71
2022/06/15 01:33:26;;;;;;;12.05;5.47;;;;;;;12.71;75.87;101820.50;5114867;28;20031;-71
2022/06/15 01:36:04;;;;;;;10.60;5.65;;;;;;;12.62;76.75;101817.16;5115165;28;20023;-71
2022/06/15 01:39:02;;;;;;;8.90;5.35;;;;;;;12.56;77.11;101819.00;5115369;28;20441;-72
2022/06/15 01:41:43;;;;;;;10.63;4.88;;;;;;;12.56;76.67;101816.41;5115690;28;20046;-72
2022/06/15 01:44:18;;;;;;;12.05;5.78;;;;;;;12.53;77.44;101812.06;5115472;28;20019;-71
2022/06/15 01:46:46;;;;;;;13.68;6.22;;;;;;;12.53;77.99;101816.44;5114374;28;20446;-72
2022/06/15 01:49:22;;;;;;;8.88;6.05;;;;;;;12.45;77.67;101816.53;5115485;28;20099;-72
2022/06/15 01:51:50;;;;;;;12.13;5.80;;;;;;;12.41;78.78;101810.50;5115161;28;20028;-72
2022/06/15 01:54:56;;;;;;;9.07;5.65;;;;;;;12.38;77.76;101810.53;5114376;28;20477;-72
2022/06/15 01:57:22;;;;;;;8.63;5.80;;;;;;;12.30;79.23;101799.34;5114422;28;20048;-72
2022/06/15 01:59:57;;;;;;;12.23;5.82;;;;;;;12.24;79.38;101799.44;5114901;28;20072;-71
2022/06/15 02:02:31;;;;;;;10.13;5.40;;;;;;;12.25;79.88;101809.00;5115353;28;20048;-72
2022/06/15 02:05:21;;;;;;;8.68;5.68;;;;;;;12.20;78.62;101805.63;5114731;28;20050;-72
2022/06/15 02:08:01;;;;;;;8.25;5.70;;;;;;;12.08;79.32;101784.88;5113806;28;20479;-72
2022/06/15 02:10:32;;;;;;;8.32;6.22;;;;;;;12.04;79.40;101791.03;5114677;28;20053;-71
2022/06/15 02:13:29;;;;;;;9.07;6.03;;;;;;;11.99;79.79;101806.75;5114032;28;20365;-71
2022/06/15 02:16:02;;;;;;;9.50;5.90;;;;;;;11.93;80.37;101797.28;5105322;28;20114;-72
2022/06/15 02:18:32;;;;;;;8.45;5.95;;;;;;;11.94;80.74;101793.78;5115018;27;20032;-71
2022/06/15 02:21:02;;;;;;;8.82;5.88;;;;;;;11.94;80.94;101787.69;5114510;28;20024;-71
2022/06/15 02:23:31;;;;;;;10.18;5.97;;;;;;;11.92;80.68;101795.53;5114757;28;20072;-72
2022/06/15 02:25:59;;;;;;;7.28;5.80;;;;;;;11.89;81.38;101795.56;5114180;28;20024;-71
2022/06/15 02:28:31;;;;;;;9.85;6.30;;;;;;;11.85;80.99;101793.91;5113978;28;20395;-71
2022/06/15 02:30:56;;;;;;;9.50;6.00;;;;;;;11.78;81.74;101783.53;5114457;28;20020;-72
2022/06/15 02:33:29;;;;;;;9.38;6.28;;;;;;;11.78;81.77;101787.00;5114714;28;20023;-71
2022/06/15 02:35:56;;;;;;;9.73;6.15;;;;;;;11.73;82.18;101784.44;5113518;28;20432;-71
2022/06/15 02:38:25;;;;;;;12.57;6.10;;;;;;;11.72;81.75;101792.31;5114230;28;20385;-71
2022/06/15 02:40:51;;;;;;;9.05;6.40;;;;;;;11.73;82.21;101786.19;5114244;28;20020;-72
2022/06/15 02:43:21;;;;;;;9.68;6.50;;;;;;;11.65;82.41;101775.00;5113383;28;20041;-71
2022/06/15 02:45:48;;;;;;;8.80;6.43;;;;;;;11.70;82.87;101776.63;5114441;28;20054;-72
2022/06/15 02:48:14;;;;;;;9.95;6.95;;;;;;;11.65;82.25;101772.38;5114150;28;20535;-71
2022/06/15 02:50:54;;;;;;;9.68;6.43;;;;;;;11.63;81.59;101776.75;5113266;28;20130;-71
2022/06/15 02:53:24;;;;;;;8.23;6.03;;;;;;;11.66;82.76;101779.31;5114420;28;20034;-72
2022/06/15 02:55:51;;;;;;;12.35;6.95;;;;;;;11.63;82.41;101776.75;5113950;28;20040;-72
2022/06/15 02:58:42;;;;;;;14.88;7.03;;;;;;;11.63;81.44;101772.38;5113070;28;20464;-72
2022/06/15 03:01:07;;;;;;;11.00;6.35;;;;;;;11.54;82.32;101767.25;5104036;28;20039;-71
2022/06/15 03:03:34;;;;;;;13.65;6.43;;;;;;;11.58;82.65;101763.75;5113374;28;20028;-71
2022/06/15 03:05:59;;;;;;;9.07;6.18;;;;;;;11.53;83.34;101768.16;5113596;28;20487;-71
2022/06/15 03:08:25;;;;;;;6.95;5.82;;;;;;;11.54;83.76;101776.84;5114010;28;20036;-71
2022/06/15 03:10:52;;;;;;;12.23;6.20;;;;;;;11.48;83.21;101768.22;5112568;28;20012;-71
2022/06/15 03:13:18;;;;;;;11.75;6.60;;;;;;;11.46;83.36;101772.59;5113759;28;20047;-71
2022/06/15 03:15:43;;;;;;;9.50;6.93;;;;;;;11.40;83.83;101775.28;5113360;28;20356;-71
2022/06/15 03:18:09;;;;;;;11.27;6.82;;;;;;;11.40;84.02;101772.66;5112704;28;20467;-71
2022/06/15 03:20:34;;;;;;;10.65;6.45;;;;;;;11.35;84.26;101769.25;5114071;28;20028;-71
2022/06/15 03:23:00;;;;;;;10.95;6.32;;;;;;;11.32;84.18;101776.28;5113288;28;20408;-71
2022/06/15 03:25:26;;;;;;;12.65;6.95;;;;;;;11.33;84.44;101772.78;5112885;28;20026;-71
2022/06/15 03:27:52;;;;;;;8.27;6.35;;;;;;;11.31;85.02;101779.75;5113319;28;20026;-71
2022/06/15 03:30:18;;;;;;;8.18;6.35;;;;;;;11.27;85.17;101778.06;5113373;28;20058;-71
2022/06/15 03:32:43;;;;;;;10.02;6.72;;;;;;;11.23;84.77;101778.09;5112592;28;20432;-71
2022/06/15 03:35:10;;;;;;;9.88;6.40;;;;;;;11.21;85.15;101777.22;5113332;28;20023;-71
2022/06/15 03:37:37;;;;;;;13.45;6.93;;;;;;;11.25;85.13;101775.47;5113542;28;20039;-71
2022/06/15 03:40:05;;;;;;;13.15;7.25;;;;;;;11.20;85.02;101788.56;5112490;28;20023;-71
2022/06/15 03:42:30;;;;;;;12.38;7.25;;;;;;;11.17;85.19;101787.72;5113405;28;20020;-71
2022/06/15 03:44:55;;;;;;;8.07;6.22;;;;;;;11.19;85.75;101791.22;5112856;28;20555;-71
2022/06/15 03:47:21;;;;;;;11.38;6.65;;;;;;;11.10;85.66;101786.94;5112756;28;20077;-71
2022/06/15 03:49:48;;;;;;;10.32;8.55;;;;;;;11.19;85.73;101793.81;5113246;28;20023;-71
2022/06/15 03:52:17;;;;;;;9.95;6.85;;;;;;;11.16;85.90;101792.09;5113396;28;20027;-71
2022/06/15 03:54:43;;;;;;;9.32;7.13;;;;;;;11.23;86.21;101787.69;5112156;28;20425;-71
2022/06/15 03:57:10;;;;;;;8.02;6.90;;;;;;;11.26;86.10;101785.03;5113015;28;20043;-71
2022/06/15 03:59:35;;;;;;;12.77;7.18;;;;;;;11.26;86.04;101790.25;5112606;28;20038;-71
2022/06/15 04:02:01;;;;;;;9.10;6.80;;;;;;;11.24;85.94;101790.25;5113002;28;20028;-71
2022/06/15 04:04:26;;;;;;;8.43;6.65;;;;;;;11.19;86.09;101776.41;5113376;28;20070;-71
2022/06/15 04:06:51;;;;;;;15.32;7.43;;;;;;;11.18;85.83;101774.69;5112108;28;20124;-71
2022/06/15 04:09:21;;;;;;;11.82;7.25;;;;;;;11.35;85.81;101787.53;5113170;28;20032;-71
2022/06/15 04:11:59;;;;;;;7.65;6.53;;;;;;;11.33;86.03;101788.44;5113083;28;20027;-71
2022/06/15 04:14:32;;;;;;;9.95;6.50;;;;;;;11.38;85.97;101794.44;5112221;28;20459;-71
2022/06/15 04:16:58;;;;;;;12.55;7.03;;;;;;;11.42;85.54;101797.03;5112875;28;20020;-72
2022/06/15 04:19:35;;;;;;;10.73;7.45;;;;;;;11.49;84.90;101792.59;5113136;28;20047;-72
2022/06/15 04:22:00;;;;;;;11.65;7.20;;;;;;;11.51;85.36;101783.00;5111991;28;20024;-71
2022/06/15 04:24:29;;;;;;;12.75;7.45;;;;;;;11.63;85.60;101789.81;5112841;28;20379;-71
2022/06/15 04:26:54;;;;;;;12.05;6.88;;;;;;;11.70;84.65;101789.69;5113062;28;20383;-71
2022/06/15 04:29:20;;;;;;;11.73;6.82;;;;;;;11.81;84.98;101789.56;5112549;28;20020;-71
2022/06/15 04:31:46;;;;;;;13.13;7.30;;;;;;;11.86;85.04;101787.78;5112601;28;20047;-71
2022/06/15 04:34:12;;;;;;;12.60;7.30;;;;;;;11.90;83.46;101784.25;5113156;28;20027;-71
2022/06/15 04:36:40;;;;;;;12.23;6.90;;;;;;;11.94;83.01;101782.47;5115973;28;20023;-71
2022/06/15 04:39:08;;;;;;;13.52;7.57;;;;;;;12.01;81.91;101789.31;5116528;28;20043;-71
2022/06/15 04:41:36;;;;;;;11.45;7.35;;;;;;;12.00;82.38;101776.25;5116896;28;20020;-71
2022/06/15 04:44:02;;;;;;;12.90;8.00;;;;;;;12.05;82.27;101766.63;5115619;28;20531;-71
2022/06/15 04:46:27;;;;;;;10.88;7.32;;;;;;;12.15;81.31;101784.75;5116591;28;20101;-71
2022/06/15 04:48:52;;;;;;;14.60;7.60;;;;;;;12.27;81.61;101795.94;5115463;28;20032;-71
2022/06/15 04:51:21;;;;;;;15.23;8.20;;;;;;;12.32;80.84;101794.94;5116499;28;20042;-71
2022/06/15 04:53:48;;;;;;;13.57;7.63;;;;;;;12.40;82.07;101790.47;5116016;27;20081;-71
2022/06/15 04:56:14;;;;;;;12.80;7.63;;;;;;;12.47;81.15;101796.47;5115464;28;20033;-71
2022/06/15 04:58:43;;;;;;;14.23;8.00;;;;;;;12.51;80.09;101797.28;5116278;28;20128;-71
2022/06/15 05:01:09;;;;;;;11.57;7.55;;;;;;;12.55;80.35;101791.97;5116521;28;20030;-71
2022/06/15 05:03:36;;;;;;;13.93;8.15;;;;;;;12.62;79.15;101795.34;5115555;28;20026;-71
2022/06/15 05:06:09;;;;;;;12.80;9.07;;;;;;;12.67;79.49;101788.28;5115629;28;20036;-71
2022/06/15 05:08:34;;;;;;;16.47;8.67;;;;;;;12.72;79.16;101789.09;5116413;28;20353;-71
2022/06/15 05:11:00;;;;;;;12.95;8.63;;;;;;;12.77;78.70;101789.00;5115266;28;20034;-71
2022/06/15 05:13:26;;;;;;;14.77;8.38;;;;;;;12.80;79.06;101792.41;5116211;28;20387;-71
2022/06/15 05:15:52;;;;;;;11.35;8.30;;;;;;;12.85;78.36;101782.75;5115920;28;20024;-71
2022/06/15 05:18:17;;;;;;;17.70;8.85;;;;;;;12.93;77.74;101794.81;5115055;28;20038;-71
2022/06/15 05:20:42;;;;;;;15.23;8.70;;;;;;;12.99;77.73;101792.97;5116012;28;20023;-71
2022/06/15 05:23:12;;;;;;;14.48;7.82;;;;;;;13.06;77.84;101794.56;5116050;28;20019;-71
2022/06/15 05:25:38;;;;;;;13.73;8.38;;;;;;;13.15;77.43;101800.53;5115233;28;20020;-71
2022/06/15 05:28:05;;;;;;;13.02;8.30;;;;;;;13.20;77.11;101794.28;5115675;28;20027;-71
2022/06/15 05:30:30;;;;;;;11.48;8.18;;;;;;;13.27;77.75;101792.47;5115997;27;20088;-71
2022/06/15 05:32:55;;;;;;;11.68;8.63;;;;;;;13.33;77.48;101801.06;5114618;28;20095;-72
2022/06/15 05:35:21;;;;;;;16.40;7.90;;;;;;;13.40;76.35;101796.56;5115655;28;20390;-71
2022/06/15 05:37:46;;;;;;;11.68;8.05;;;;;;;13.45;76.27;101791.25;5115391;28;20031;-72
2022/06/15 05:40:12;;;;;;;13.40;8.05;;;;;;;13.55;75.90;101795.41;5114932;28;20111;-71
2022/06/15 05:42:37;;;;;;;11.90;8.48;;;;;;;13.62;76.46;101791.75;5115632;28;20039;-71
2022/06/15 05:45:03;;;;;;;9.90;8.05;;;;;;;13.69;75.81;101797.72;5114197;28;20011;-71
2022/06/15 05:47:29;;;;;;;12.40;8.10;;;;;;;13.73;75.70;101802.00;5115394;28;20019;-72
2022/06/15 05:49:54;;;;;;;15.10;8.48;;;;;;;13.81;75.13;101794.84;5115162;28;20359;-71
2022/06/15 05:52:20;;;;;;;11.38;7.60;;;;;;;13.91;74.50;101796.38;5114622;28;20061;-71
2022/06/15 05:54:45;;;;;;;15.05;8.02;;;;;;;13.98;74.55;101797.94;5115174;28;20079;-71
2022/06/15 05:57:18;;;;;;;11.38;8.20;;;;;;;14.06;74.87;101792.56;5115020;28;20411;-71
2022/06/15 05:59:45;;;;;;;14.30;7.73;;;;;;;14.15;73.64;101800.19;5114221;28;20028;-72
2022/06/15 06:02:11;;;;;;;14.18;8.50;;;;;;;14.22;74.64;101796.53;5115178;28;20281;-71
2022/06/15 06:04:36;;;;;;;11.60;7.65;;;;;;;14.29;73.40;101800.75;5114976;28;20020;-71
2022/06/15 06:07:02;;;;;;;12.98;7.90;;;;;;;14.36;73.31;101796.22;5113878;28;20041;-71
2022/06/15 06:09:28;;;;;;;14.30;8.18;;;;;;;14.43;72.55;101795.16;5115185;28;20036;-71
2022/06/15 06:11:54;;;;;;;18.02;8.05;;;;;;;14.51;71.85;101795.84;5114658;28;20068;-72
2022/06/15 06:14:20;;;;;;;10.93;6.95;;;;;;;14.60;72.42;101796.53;5114153;28;20061;-71
2022/06/15 06:16:45;;;;;;;13.20;8.30;;;;;;;14.69;73.32;101799.78;5114588;28;20047;-71
2022/06/15 06:19:11;;;;;;;13.30;7.25;;;;;;;14.82;71.80;101796.88;5114618;28;20027;-71
2022/06/15 06:21:36;;;;;;;11.90;7.00;;;;;;;14.89;71.76;101790.53;5114137;28;20421;-72
2022/06/15 06:24:01;;;;;;;14.98;7.63;;;;;;;14.97;70.10;101785.94;5114534;28;20027;-72
2022/06/15 06:26:30;;;;;;;11.52;6.78;;;;;;;15.06;70.69;101790.09;5114772;28;20072;-72
2022/06/15 06:28:59;;;;;;;11.90;7.63;;;;;;;15.13;70.65;101783.75;5113455;28;20467;-72
2022/06/15 06:31:25;;;;;;;12.00;7.03;;;;;;;15.19;70.76;101791.47;5114546;28;20023;-71
2022/06/15 06:33:51;;;;;;;11.30;6.85;;;;;;;15.29;70.32;101787.69;5114233;28;20032;-72
2022/06/15 06:36:19;;;;;;;12.68;6.90;;;;;;;15.35;70.64;101791.91;5113748;28;20394;-71
2022/06/15 06:38:47;;;;;;;12.38;6.63;;;;;;;15.44;69.22;101795.16;5113992;28;20030;-72
2022/06/15 06:41:18;;;;;;;11.25;6.65;;;;;;;15.53;68.70;101791.41;5114017;28;20098;-72
2022/06/15 06:43:43;;;;;;;14.15;6.80;;;;;;;15.61;69.39;101793.78;5114111;28;20019;-72
2022/06/15 06:46:09;;;;;;;10.82;6.80;;;;;;;15.65;68.60;101788.38;5114320;28;20107;-72
2022/06/15 06:48:35;;;;;;;10.15;6.60;;;;;;;15.81;68.31;101801.13;5113605;28;20597;-72
2022/06/15 06:51:00;;;;;;;8.55;5.93;;;;;;;15.85;69.21;101802.75;5114092;28;20034;-72
2022/06/15 06:53:25;;;;;;;10.25;6.03;;;;;;;15.92;68.70;101801.66;5114254;28;20023;-72
2022/06/15 06:55:51;;;;;;;12.65;6.80;;;;;;;15.98;67.57;101806.72;5113037;28;20481;-72
2022/06/15 06:58:16;;;;;;;11.07;6.45;;;;;;;16.05;66.95;101805.63;5113035;28;20051;-71
2022/06/15 07:00:41;;;;;;;10.82;6.72;;;;;;;16.13;66.70;101808.88;5113546;28;20020;-72
2022/06/15 07:03:07;;;;;;;12.93;6.72;;;;;;;16.19;66.56;101810.47;5113450;28;20028;-72
2022/06/15 07:05:34;;;;;;;13.25;6.50;;;;;;;16.27;67.58;101812.84;5114182;28;20020;-71
2022/06/15 07:07:59;;;;;;;10.35;6.80;;;;;;;16.34;66.13;101811.75;5113774;28;20051;-72
2022/06/15 07:10:26;;;;;;;8.55;5.88;;;;;;;16.43;67.38;101808.81;5113217;28;20475;-72
2022/06/15 07:12:52;;;;;;;11.77;5.70;;;;;;;16.50;66.09;101810.34;5113532;28;20030;-72
2022/06/15 07:15:18;;;;;;;10.77;5.93;;;;;;;16.60;64.54;101810.88;5113650;28;20093;-72
2022/06/15 07:17:43;;;;;;;9.82;5.80;;;;;;;16.66;65.23;101812.47;5112755;28;20463;-72
2022/06/15 07:20:10;;;;;;;9.07;5.50;;;;;;;16.73;65.19;101816.59;5113875;28;20024;-72
2022/06/15 07:22:36;;;;;;;10.00;5.43;;;;;;;16.81;64.06;101817.25;5113746;28;20045;-72
2022/06/15 07:25:03;;;;;;;10.63;6.18;;;;;;;16.86;64.12;101815.31;5112531;28;20051;-72
2022/06/15 07:27:28;;;;;;;10.73;5.22;;;;;;;16.94;63.54;101813.28;5113434;28;20048;-72
2022/06/15 07:29:55;;;;;;;10.05;6.03;;;;;;;17.08;63.67;101815.44;5113157;28;20039;-72
2022/06/15 07:32:21;;;;;;;10.88;6.38;;;;;;;17.24;64.25;101813.13;5112796;28;20400;-72
2022/06/15 07:34:47;;;;;;;10.20;5.32;;;;;;;17.34;64.95;101817.16;5113194;28;20027;-72
2022/06/15 07:37:12;;;;;;;8.98;5.60;;;;;;;17.37;64.16;101801.22;5113595;28;20059;-72
2022/06/15 07:39:38;;;;;;;14.88;5.25;;;;;;;17.49;64.28;101803.41;5112538;28;20459;-72
2022/06/15 07:42:07;;;;;;;11.55;5.32;;;;;;;17.57;63.74;101807.53;5113198;28;20028;-72
2022/06/15 07:44:34;;;;;;;8.18;5.60;;;;;;;17.68;64.56;101811.47;5112510;28;20031;-72
2022/06/15 07:49:59;;;;;;;8.57;5.53;;;;;;;17.89;60.90;101812.47;5112928;28;20514;-72
2022/06/15 07:52:32;;;;;;;11.13;5.50;;;;;;;17.94;61.19;101818.41;5112737;28;20034;-72
2022/06/15 07:54:57;;;;;;;9.93;5.63;;;;;;;18.00;60.13;101819.97;5112923;28;20022;-72
2022/06/15 07:57:23;;;;;;;13.35;5.47;;;;;;;18.09;60.25;101826.69;5113082;28;20040;-72
2022/06/15 07:59:49;;;;;;;15.45;5.38;;;;;;;18.11;60.10;101820.41;5112124;28;20032;-72
2022/06/15 08:02:15;;;;;;;10.05;5.75;;;;;;;18.21;59.56;101818.25;5113237;28;20020;-72
2022/06/15 08:04:40;;;;;;;14.13;5.30;;;;;;;18.24;59.40;101812.84;5112966;28;20498;-72
2022/06/15 08:07:08;;;;;;;10.38;5.43;;;;;;;18.35;58.81;101821.22;5112317;28;20027;-72
2022/06/15 08:09:34;;;;;;;10.00;4.80;;;;;;;18.48;59.48;101818.94;5115644;28;20016;-72
2022/06/15 08:12:11;;;;;;;11.73;4.93;;;;;;;18.58;58.68;101828.19;5117534;28;20043;-72
2022/06/15 08:14:44;;;;;;;8.80;4.60;;;;;;;18.64;58.57;101820.03;5116783;27;20080;-72
2022/06/15 08:17:28;;;;;;;9.68;5.25;;;;;;;18.73;58.59;101817.94;5117009;28;20539;-72
2022/06/15 08:19:58;;;;;;;6.30;4.57;;;;;;;18.77;56.78;101824.81;5116175;28;20119;-72
2022/06/15 08:22:24;;;;;;;10.30;5.30;;;;;;;18.88;56.73;101823.44;5117330;28;20055;-72
2022/06/15 08:24:49;;;;;;;7.38;4.40;;;;;;;18.99;58.27;101815.03;5116897;28;20531;-72
2022/06/15 08:27:19;;;;;;;9.80;4.90;;;;;;;19.08;56.12;101814.66;5116339;28;20027;-72
2022/06/15 08:29:46;;;;;;;11.20;4.60;;;;;;;19.18;54.68;101815.94;5116699;28;20027;-72
2022/06/15 08:32:12;;;;;;;9.10;4.65;;;;;;;19.32;57.27;101811.84;5116885;28;20023;-72
2022/06/15 08:34:39;;;;;;;11.48;5.35;;;;;;;19.46;55.27;101811.25;5115889;28;20024;-72
2022/06/15 08:37:07;;;;;;;11.80;4.90;;;;;;;19.61;55.65;101818.44;5116673;28;20030;-72
2022/06/15 08:39:33;;;;;;;13.32;5.18;;;;;;;19.63;54.03;101809.56;5116811;27;20031;-72
2022/06/15 08:42:16;;;;;;;10.18;4.97;;;;;;;19.70;54.60;101811.94;5115812;28;20020;-72
2022/06/15 08:44:57;;;;;;;10.77;4.60;;;;;;;19.72;53.79;101812.69;5116337;28;20028;-72
2022/06/15 08:47:44;;;;;;;9.88;4.65;;;;;;;19.83;54.27;101808.63;5116846;28;20028;-72
2022/06/15 08:50:37;;;;;;;9.77;4.95;;;;;;;19.99;54.29;101805.28;5115615;28;20353;-72
2022/06/15 08:53:23;;;;;;;13.25;4.10;;;;;;;20.10;53.98;101800.31;5116273;28;20027;-72
2022/06/15 08:55:59;;;;;;;9.30;5.03;;;;;;;20.25;53.21;101804.00;5115319;28;20378;-72
2022/06/15 08:58:45;;;;;;;13.05;5.90;;;;;;;20.35;52.37;101803.47;5116114;28;20067;-72
2022/06/15 09:01:46;;;;;;;12.88;5.38;;;;;;;20.53;54.52;101806.16;5116366;28;20027;-72
2022/06/15 09:04:46;;;;;;;8.90;5.15;;;;;;;20.65;53.47;101802.91;5115355;28;20382;-72
2022/06/15 09:07:39;;;;;;;9.63;5.03;;;;;;;20.73;52.36;101800.75;5116119;28;20459;-72
2022/06/15 09:10:23;;;;;;;;;;;;;;;20.79;52.99;101788.97;5115500;28;20023;-72
2022/06/15 09:13:25;;;;;;;9.40;4.65;;;;;;;20.89;51.92;101792.84;5116379;28;19911;-72
2022/06/15 09:16:07;;;;;;;11.00;4.70;;;;;;;20.95;50.91;101804.94;5115871;28;20062;-72
2022/06/15 09:18:55;;;;;;;8.95;4.50;;;;;;;21.04;50.07;101805.31;5116088;28;20026;-72
2022/06/15 09:22:04;;;;;;;11.20;4.85;;;;;;;21.04;48.83;101807.97;5115392;28;20030;-72
2022/06/15 09:24:53;;;;;;;10.77;4.88;;;;;;;21.17;49.95;101808.19;5076674;28;20486;-73
2022/06/15 09:27:26;;;;;;;12.25;5.40;;;;;;;21.16;47.57;101798.53;5115732;28;20078;-72
2022/06/15 09:29:58;;;;;;;9.95;5.68;;;;;;;21.29;47.95;101804.03;5115594;28;20038;-72
2022/06/15 09:32:27;;;;;;;11.88;5.85;;;;;;;21.33;49.25;101807.38;5115050;28;20023;-72
2022/06/15 09:35:31;;;;;;;11.43;5.70;;;;;;;21.38;49.23;101813.31;5115192;28;20419;-72
2022/06/15 09:37:59;;;;;;;9.43;5.37;;;;;;;21.45;49.20;101804.06;5114583;27;20448;-72
2022/06/15 09:40:34;;;;;;;13.20;5.90;;;;;;;21.53;47.10;101795.72;5115668;28;20277;-72
2022/06/15 09:43:10;;;;;;;11.05;5.30;;;;;;;21.53;48.23;101793.06;5115376;28;20031;-72
2022/06/15 09:45:45;;;;;;;8.45;5.53;;;;;;;21.49;47.50;101787.94;5114916;28;20109;-72
2022/06/15 09:48:40;;;;;;;11.38;5.13;;;;;;;21.56;49.24;101782.28;5115423;28;20501;-73
2022/06/15 09:51:19;;;;;;;9.63;4.47;;;;;;;21.65;47.73;101785.28;5115195;28;20024;-72
2022/06/15 09:54:05;;;;;;;10.73;5.43;;;;;;;21.85;49.27;101783.34;5115001;28;20024;-73
2022/06/15 09:56:31;;;;;;;12.05;6.57;;;;;;;21.98;46.91;101792.31;5115267;28;20058;-73
2022/06/15 09:59:01;;;;;;;8.55;5.65;;;;;;;22.12;47.08;101787.06;5114257;28;20035;-73
2022/06/15 10:01:36;;;;;;;11.05;5.88;;;;;;;22.25;48.19;101786.41;5115418;28;20032;-73
2022/06/15 10:04:04;;;;;;;10.98;4.85;;;;;;;22.33;48.11;101789.47;5114733;28;20387;-72
2022/06/15 10:06:52;;;;;;;9.82;5.10;;;;;;;22.54;49.01;101796.19;5114462;28;20024;-72
2022/06/15 10:09:23;;;;;;;13.07;5.95;;;;;;;22.46;45.83;101793.13;5114968;28;20027;-72
2022/06/15 10:11:52;;;;;;;11.15;4.97;;;;;;;22.48;44.70;101793.91;5114655;28;20548;-72
2022/06/15 10:14:24;;;;;;;9.98;4.95;;;;;;;22.56;47.11;101796.09;5114126;28;20031;-73
2022/06/15 10:16:53;;;;;;;8.77;5.13;;;;;;;22.66;46.68;101792.81;5114770;28;20032;-72
2022/06/15 10:19:19;;;;;;;12.40;5.65;;;;;;;22.76;45.99;101776.31;5113917;27;20055;-72
2022/06/15 10:21:52;;;;;;;12.40;5.45;;;;;;;22.87;45.34;101789.81;5114570;28;20032;-73
2022/06/15 10:24:23;;;;;;;8.52;4.80;;;;;;;22.91;44.88;101786.03;5114819;28;20038;-73
2022/06/15 10:26:52;;;;;;;8.95;4.78;;;;;;;23.00;44.89;101792.63;5113617;28;20031;-73
2022/06/15 10:29:23;;;;;;;9.23;5.53;;;;;;;22.96;44.58;101776.00;5114590;28;20490;-73
2022/06/15 10:32:09;;;;;;;8.00;4.75;;;;;;;23.03;45.54;101780.00;5113832;28;20030;-73
2022/06/15 10:35:13;;;;;;;10.93;5.28;;;;;;;23.24;46.15;101792.91;5113842;28;20361;-73
2022/06/15 10:37:44;;;;;;;9.82;5.50;;;;;;;23.49;44.08;101779.81;5114539;28;20024;-73
2022/06/15 10:40:31;;;;;;;10.25;4.32;;;;;;;23.67;45.81;101776.91;5114333;28;20027;-72
2022/06/15 10:43:18;;;;;;;11.02;5.65;;;;;;;23.73;44.26;101779.22;5114148;28;20096;-73
2022/06/15 10:45:52;;;;;;;11.13;5.10;;;;;;;23.81;42.59;101774.28;5113897;28;20370;-73
2022/06/15 10:48:23;;;;;;;12.93;4.60;;;;;;;23.85;43.31;101785.56;5113558;28;20032;-73
2022/06/15 10:50:57;;;;;;;12.65;4.78;;;;;;;24.09;45.33;101775.97;5114184;28;20024;-73
2022/06/15 10:53:41;;;;;;;8.63;4.47;;;;;;;24.12;45.49;101777.59;5090751;27;20389;-71
2022/06/15 11:02:09;;;;;;;13.02;5.15;;;;;;;24.50;41.97;101762.59;5089667;28;20077;-71
2022/06/15 11:04:52;;;;;;;11.15;4.25;;;;;;;24.67;43.55;101758.78;5090503;28;20020;-71
2022/06/15 11:07:23;;;;;;;7.78;4.55;;;;;;;24.78;40.75;101750.03;5090417;28;20028;-72
2022/06/15 11:09:54;;;;;;;8.18;4.40;;;;;;;24.88;42.72;101752.91;5089171;28;20028;-71
2022/06/15 11:12:37;;;;;;;8.90;4.47;;;;;;;25.02;42.56;101751.97;5090086;28;20051;-71
2022/06/15 11:18:01;;;;;;;9.20;5.32;;;;;;;24.96;40.80;101738.09;5090044;28;20024;-71
2022/06/15 11:18:26;;;;;;;9.38;5.50;;;;;;;24.93;40.16;101742.78;5090055;28;20024;-71
2022/06/15 11:20:57;;;;;;;6.75;4.22;;;;;;;25.12;40.67;101751.25;5089958;28;20115;-71
2022/06/15 11:23:37;;;;;;;8.57;4.82;;;;;;;25.31;38.83;101747.25;5089055;28;20101;-72
2022/06/15 11:29:05;;;;;;;7.88;4.55;;;;;;;25.53;41.65;101763.44;5089804;28;20106;-71
2022/06/15 11:31:31;;;;;;;8.13;5.18;;;;;;;25.57;40.70;101764.06;5088955;28;20438;-71
2022/06/15 11:34:06;;;;;;;12.13;4.90;;;;;;;25.72;40.55;101757.63;5089669;28;20103;-72
2022/06/15 11:36:38;;;;;;;9.82;4.70;;;;;;;25.96;40.49;101756.81;5089985;28;20024;-71
2022/06/15 11:39:15;;;;;;;10.93;5.25;;;;;;;26.13;39.79;101753.75;5089572;28;20021;-72
2022/06/15 11:41:48;;;;;;;10.60;5.13;;;;;;;26.30;39.64;101763.19;5089410;28;20028;-71
2022/06/15 11:44:18;;;;;;;13.43;4.10;;;;;;;26.67;41.07;101757.72;5088778;28;20024;-72
2022/06/15 11:47:05;;;;;;;9.95;5.18;;;;;;;26.98;35.27;101756.19;5089396;28;20016;-71
2022/06/15 11:50:04;;;;;;;12.35;5.18;;;;;;;27.67;36.73;101751.53;5089579;28;20097;-72
2022/06/15 11:52:56;;;;;;;11.38;4.85;;;;;;;28.92;37.13;101747.34;5088322;28;20052;-72
2022/06/15 11:55:56;;;;;;;8.55;4.63;;;;;;;30.58;34.07;101756.63;5089491;28;20036;-72